Time;durP1;ratioP1;P1;durP2;ratioP2;P2;SDS_P1;SDS_P2;PMS_P1;PMS_P2;Temp;Humidity;BMP_temperature;BMP_pressure;BME280_temperature;BME280_humidity;BME280_pressure;Samples;Min_cycle;Max_cycle;Signal;HPM_P1;HPM_P2
2021/01/18 00:00:23;;;;;;;17.48;4.97;;;4.20;93.40;;;;;;6280632;22;19995;-88
2021/01/18 00:03:12;;;;;;;12.45;4.22;;;4.20;93.40;;;;;;6275927;22;20015;-87
2021/01/18 00:06:06;;;;;;;9.95;3.55;;;4.20;93.40;;;;;;6255967;22;20320;-87
2021/01/18 00:08:45;;;;;;;11.43;4.32;;;4.10;93.40;;;;;;6259652;22;20388;-86
2021/01/18 00:11:24;;;;;;;;;;;;;;;;;;;;;
2021/01/18 00:14:21;;;;;;;12.18;3.90;;;4.10;93.40;;;;;;6308231;22;20090;-88
2021/01/18 00:16:42;;;;;;;10.82;3.83;;;4.10;93.40;;;;;;6302343;22;20030;-88
2021/01/18 00:19:26;;;;;;;11.63;3.95;;;4.00;93.40;;;;;;6308472;22;20015;-87
2021/01/18 00:22:08;;;;;;;;;;;;;;;;;;;;;
2021/01/18 00:24:39;;;;;;;;;;;4.00;93.40;;;;;;6309142;22;20050;-87
2021/01/18 00:27:23;;;;;;;17.60;5.28;;;4.00;93.40;;;;;;6280608;22;19968;-87
2021/01/18 00:30:13;;;;;;;13.52;5.03;;;4.00;93.40;;;;;;6280955;22;20003;-88
2021/01/18 00:32:44;;;;;;;15.38;5.13;;;3.90;93.30;;;;;;6259114;22;20061;-87
2021/01/18 00:35:27;;;;;;;;;;;;;;;;;;;;;
2021/01/18 00:38:01;;;;;;;13.85;4.80;;;3.90;93.30;;;;;;6307839;22;20653;-88
2021/01/18 00:40:34;;;;;;;10.48;5.05;;;3.80;93.30;;;;;;6256790;22;20492;-87
2021/01/18 00:43:30;;;;;;;15.88;6.00;;;3.90;93.40;;;;;;6254650;22;20042;-86
2021/01/18 00:46:08;;;;;;;14.02;5.07;;;3.80;93.30;;;;;;6308286;22;20014;-87
2021/01/18 00:48:44;;;;;;;;;;;;;;;;;;;;;
2021/01/18 00:51:22;;;;;;;;;;;;;;;;;;;;;
2021/01/18 00:54:03;;;;;;;;;;;;;;;;;;;;;
2021/01/18 00:57:03;;;;;;;14.10;5.20;;;3.80;93.40;;;;;;6283243;22;20082;-88
2021/01/18 00:59:42;;;;;;;11.13;4.22;;;3.80;93.40;;;;;;6280539;22;20007;-87
2021/01/18 01:05:45;;;;;;;11.75;5.00;;;3.90;93.40;;;;;;6286027;22;20003;-87
2021/01/18 01:08:21;;;;;;;10.13;5.05;;;3.80;93.40;;;;;;6255306;22;20003;-87
2021/01/18 01:10:57;;;;;;;15.82;5.30;;;3.90;93.40;;;;;;6280517;22;20006;-87
2021/01/18 01:16:21;;;;;;;15.38;5.63;;;3.80;93.50;;;;;;6295892;22;20007;-88
2021/01/18 01:18:59;;;;;;;12.73;5.32;;;3.90;93.50;;;;;;6279741;22;20022;-87
2021/01/18 01:21:25;;;;;;;11.60;5.30;;;3.90;93.50;;;;;;6279324;22;20014;-87
2021/01/18 01:24:01;;;;;;;;;;;;;;;;;;;;;
2021/01/18 01:26:36;;;;;;;10.73;4.90;;;3.90;93.50;;;;;;6307525;22;20079;-87
2021/01/18 01:29:07;;;;;;;15.80;5.22;;;3.90;93.40;;;;;;6306296;22;19999;-90
2021/01/18 01:31:45;;;;;;;12.27;5.23;;;3.90;93.40;;;;;;6279663;22;20031;-88
2021/01/18 01:34:13;;;;;;;12.23;4.18;;;3.90;93.40;;;;;;6254274;22;20401;-88
2021/01/18 01:36:52;;;;;;;9.45;4.75;;;3.90;93.40;;;;;;6254552;22;20006;-88
2021/01/18 01:39:43;;;;;;;11.48;5.10;;;3.90;93.40;;;;;;6279637;22;19995;-88
2021/01/18 01:42:25;;;;;;;10.57;5.18;;;3.80;93.40;;;;;;6254328;22;20007;-87
2021/01/18 01:45:01;;;;;;;12.50;4.60;;;3.80;93.40;;;;;;6279687;22;20103;-89
2021/01/18 01:50:22;;;;;;;12.15;4.90;;;3.80;93.40;;;;;;6285288;22;20554;-87
2021/01/18 01:53:09;;;;;;;11.60;4.43;;;3.80;93.40;;;;;;6279172;22;20003;-88
2021/01/18 01:55:50;;;;;;;;;;;;;;;;;;;;;
2021/01/18 02:01:10;;;;;;;13.05;5.18;;;3.80;93.40;;;;;;6273183;22;20314;-87
2021/01/18 02:04:03;;;;;;;;;;;;;;;;;;;;;
2021/01/18 02:07:06;;;;;;;9.55;4.55;;;3.80;93.40;;;;;;6283091;22;20063;-87
2021/01/18 02:09:39;;;;;;;9.35;4.22;;;3.80;93.30;;;;;;6306641;22;20038;-87
2021/01/18 02:12:15;;;;;;;12.27;4.50;;;3.70;93.30;;;;;;6278795;22;20018;-87
2021/01/18 02:15:12;;;;;;;10.95;4.72;;;3.70;93.30;;;;;;6280619;22;20031;-87
2021/01/18 02:21:07;;;;;;;12.85;4.70;;;3.70;93.30;;;;;;6288906;22;20102;-88
2021/01/18 02:23:58;;;;;;;8.30;4.95;;;3.70;93.30;;;;;;6279640;22;20011;-88
2021/01/18 02:26:48;;;;;;;9.60;4.57;;;3.60;93.30;;;;;;6306351;22;20003;-88
2021/01/18 02:30:01;;;;;;;;;;;;;;;;;;;;;
2021/01/18 02:32:56;;;;;;;10.27;4.78;;;3.60;93.30;;;;;;6306876;22;20371;-88
2021/01/18 02:36:03;;;;;;;8.25;4.15;;;3.60;93.30;;;;;;6126956;23;20428;-87
2021/01/18 02:39:08;;;;;;;;;;;;;;;;;;;;;
2021/01/18 02:42:06;;;;;;;10.55;4.97;;;3.60;93.30;;;;;;6306615;22;20078;-88
2021/01/18 02:44:43;;;;;;;11.90;4.85;;;3.50;93.30;;;;;;6279997;22;20007;-87
2021/01/18 02:47:18;;;;;;;9.20;5.40;;;3.50;93.30;;;;;;6281174;22;20034;-87
2021/01/18 02:50:11;;;;;;;11.77;5.20;;;3.50;93.30;;;;;;6279193;22;20003;-88
2021/01/18 02:52:46;;;;;;;12.35;5.43;;;3.50;93.30;;;;;;6279905;22;20004;-87
2021/01/18 02:55:24;;;;;;;10.98;5.20;;;3.50;93.30;;;;;;6279913;22;20030;-86
2021/01/18 03:01:07;;;;;;;11.43;5.40;;;3.50;93.30;;;;;;6275820;22;20003;-87
2021/01/18 03:04:16;;;;;;;14.23;5.40;;;3.50;93.30;;;;;;6279850;22;20007;-87
2021/01/18 03:07:26;;;;;;;14.25;5.78;;;3.50;93.30;;;;;;6306382;22;19999;-87
2021/01/18 03:10:10;;;;;;;12.15;5.43;;;3.50;93.30;;;;;;6306670;22;20007;-88
2021/01/18 03:12:47;;;;;;;10.68;4.97;;;3.40;93.30;;;;;;6306787;22;20003;-87
2021/01/18 03:15:42;;;;;;;;;;;;;;;;;;;;;
2021/01/18 03:18:52;;;;;;;11.52;4.95;;;3.50;93.30;;;;;;6307148;22;20070;-87
2021/01/18 03:24:29;;;;;;;13.27;6.28;;;3.40;93.30;;;;;;6264207;22;20019;-86
2021/01/18 03:27:15;;;;;;;13.73;5.93;;;3.50;93.30;;;;;;6281409;22;20045;-87
2021/01/18 03:29:53;;;;;;;12.93;5.57;;;3.40;93.30;;;;;;6282128;22;19999;-89
2021/01/18 03:32:58;;;;;;;;;;;;;;;;;;;;;
2021/01/18 03:35:51;;;;;;;15.93;6.10;;;3.40;93.30;;;;;;6308495;22;20110;-87
2021/01/18 03:38:29;;;;;;;12.75;5.68;;;3.40;93.30;;;;;;6281631;22;20014;-87
2021/01/18 03:41:07;;;;;;;11.65;5.95;;;3.40;93.30;;;;;;6281445;22;20002;-87
2021/01/18 03:43:41;;;;;;;14.30;5.85;;;3.40;93.30;;;;;;6281610;22;20010;-87
2021/01/18 03:46:07;;;;;;;13.05;6.75;;;3.40;93.30;;;;;;6256526;22;20003;-88
2021/01/18 03:48:42;;;;;;;11.95;6.28;;;3.40;93.30;;;;;;6281069;22;20074;-87
2021/01/18 03:51:28;;;;;;;;;;;;;;;;;;;;;
2021/01/18 03:54:27;;;;;;;13.45;5.60;;;3.40;93.40;;;;;;6261843;22;20074;-87
2021/01/18 03:57:34;;;;;;;;;;;;;;;;;;;;;
2021/01/18 04:03:10;;;;;;;15.38;6.60;;;3.40;93.40;;;;;;6308371;22;20018;-88
2021/01/18 04:06:16;;;;;;;16.77;6.63;;;3.30;93.40;;;;;;6279873;22;20007;-87
2021/01/18 04:08:54;;;;;;;;;;;;;;;;;;;;;
2021/01/18 04:11:52;;;;;;;15.38;7.35;;;3.30;93.40;;;;;;6308181;22;20074;-88
2021/01/18 04:14:28;;;;;;;14.63;7.18;;;3.30;93.40;;;;;;6285962;22;20011;-87
2021/01/18 04:17:20;;;;;;;14.73;6.60;;;3.30;93.40;;;;;;6308507;22;20022;-87
2021/01/18 04:19:50;;;;;;;;;;;3.30;93.50;;;;;;6309004;22;20011;-89
2021/01/18 04:22:52;;;;;;;12.90;6.78;;;3.30;93.50;;;;;;6255843;22;19911;-87
2021/01/18 04:25:35;;;;;;;14.48;7.05;;;3.30;93.40;;;;;;6285302;22;20003;-87
2021/01/18 04:28:22;;;;;;;14.18;6.95;;;3.30;93.40;;;;;;6280191;22;20333;-87
2021/01/18 04:31:09;;;;;;;;;;;;;;;;;;;;;
2021/01/18 04:33:40;;;;;;;14.48;6.68;;;3.30;93.50;;;;;;6285685;22;20098;-87
2021/01/18 04:36:12;;;;;;;15.23;6.75;;;3.30;93.50;;;;;;6255942;22;20003;-87
2021/01/18 04:38:38;;;;;;;13.18;7.18;;;3.30;93.50;;;;;;6281226;22;20022;-87
2021/01/18 04:41:13;;;;;;;15.20;7.00;;;3.30;93.50;;;;;;6280065;22;20348;-86
2021/01/18 04:43:46;;;;;;;14.98;7.82;;;3.40;93.50;;;;;;6281652;22;20007;-86
2021/01/18 04:46:51;;;;;;;16.10;7.72;;;3.30;93.50;;;;;;6280293;22;19999;-88
2021/01/18 04:49:27;;;;;;;13.82;6.90;;;3.30;93.50;;;;;;6281149;22;20010;-87
2021/01/18 04:52:37;;;;;;;15.00;7.47;;;3.30;93.50;;;;;;6280744;22;20000;-87
2021/01/18 04:55:28;;;;;;;15.00;7.88;;;3.30;93.50;;;;;;6307287;22;20087;-88
2021/01/18 04:58:04;;;;;;;;;;;3.30;93.50;;;;;;6281304;22;20065;-88
2021/01/18 05:00:52;;;;;;;15.18;7.57;;;3.30;93.50;;;;;;6280830;22;19931;-89
2021/01/18 05:03:24;;;;;;;15.75;7.80;;;3.30;93.50;;;;;;6256686;22;20106;-87
2021/01/18 05:05:54;;;;;;;16.63;9.02;;;3.30;93.50;;;;;;6279989;22;20027;-87
2021/01/18 05:08:49;;;;;;;;;;;;;;;;;;;;;
2021/01/18 05:11:18;;;;;;;21.33;8.15;;;3.30;93.50;;;;;;6309105;22;20079;-90
2021/01/18 05:14:06;;;;;;;;;;;;;;;;;;;;;
2021/01/18 05:16:46;;;;;;;;;;;;;;;;;;;;;
2021/01/18 05:22:42;;;;;;;18.27;8.45;;;3.40;93.60;;;;;;6255052;22;20021;-88
2021/01/18 05:32:25;;;;;;;17.70;9.15;;;3.40;93.60;;;;;;6309789;22;20006;-90
2021/01/18 05:42:53;;;;;;;;;;;;;;;;;;;;;
2021/01/18 05:46:20;;;;;;;21.65;9.35;;;3.30;93.60;;;;;;6127730;23;20080;-92
2021/01/18 05:56:41;;;;;;;16.65;8.18;;;3.30;93.70;;;;;;6154484;23;20522;-91
2021/01/18 06:02:34;;;;;;;;;;;;;;;;;;;;;
2021/01/18 06:06:07;;;;;;;18.27;9.05;;;3.30;93.60;;;;;;6193310;23;20075;-91
2021/01/18 06:09:19;;;;;;;17.20;8.98;;;3.40;93.70;;;;;;6201108;23;20015;-91
2021/01/18 06:22:41;;;;;;;;;;;;;;;;;;;;;
2021/01/18 06:25:53;;;;;;;;;;;;;;;;;;;;;
2021/01/18 06:29:10;;;;;;;;;;;;;;;;;;;;;
2021/01/18 06:48:53;;;;;;;;;;;;;;;;;;;;;
2021/01/18 06:51:40;;;;;;;;;;;;;;;;;;;;;
2021/01/18 07:01:28;;;;;;;;;;;;;;;;;;;;;
2021/01/18 07:04:31;;;;;;;19.08;10.82;;;3.40;93.70;;;;;;6175137;23;20079;-92
2021/01/18 07:07:25;;;;;;;;;;;3.40;93.70;;;;;;6162092;23;20103;-93
2021/01/18 07:24:09;;;;;;;;;;;;;;;;;;;;;
2021/01/18 07:37:34;;;;;;;26.10;11.02;;;3.40;93.70;;;;;;6186107;23;20089;-92
2021/01/18 07:41:15;;;;;;;22.67;10.00;;;3.50;93.80;;;;;;6102471;23;20002;-92
2021/01/18 08:07:38;;;;;;;23.50;11.20;;;3.60;93.90;;;;;;6185943;23;20058;-91
2021/01/18 08:21:53;;;;;;;22.85;11.45;;;3.70;93.90;;;;;;6138357;23;20005;-93
2021/01/18 08:27:53;;;;;;;;;;;;;;;;;;;;;
2021/01/18 08:35:02;;;;;;;;;;;;;;;;;;;;;
2021/01/18 08:49:35;;;;;;;;;;;;;;;;;;;;;
2021/01/18 08:52:24;;;;;;;19.02;9.98;;;3.90;94.00;;;;;;6031694;23;20008;-92
2021/01/18 08:58:54;;;;;;;;;;;;;;;;;;;;;
2021/01/18 09:05:13;;;;;;;19.67;10.60;;;4.00;94.00;;;;;;6175228;23;20565;-91
2021/01/18 09:11:58;;;;;;;;;;;;;;;;;;;;;
2021/01/18 09:15:20;;;;;;;23.48;12.45;;;4.10;94.10;;;;;;6285277;22;20015;-90
2021/01/18 09:18:42;;;;;;;;;;;;;;;;;;;;;
2021/01/18 09:21:49;;;;;;;22.50;12.18;;;4.20;94.10;;;;;;6226682;22;20086;-92
2021/01/18 09:25:02;;;;;;;;;;;;;;;;;;;;;
2021/01/18 09:27:59;;;;;;;;;;;;;;;;;;;;;
2021/01/18 09:31:19;;;;;;;;;;;;;;;;;;;;;
2021/01/18 09:54:13;;;;;;;;;;;;;;;;;;;;;
2021/01/18 09:57:22;;;;;;;;;;;;;;;;;;;;;
2021/01/18 10:00:43;;;;;;;20.38;12.20;;;4.50;94.10;;;;;;6009425;23;20078;-92
2021/01/18 10:04:07;;;;;;;;;;;;;;;;;;;;;
2021/01/18 10:13:47;;;;;;;;;;;4.70;94.10;;;;;;5982758;23;20003;-90
2021/01/18 10:17:14;;;;;;;24.80;14.17;;;4.70;94.10;;;;;;6045544;23;20004;-90
2021/01/18 10:20:35;;;;;;;;;;;;;;;;;;;;;
2021/01/18 10:24:16;;;;;;;26.38;15.05;;;4.70;94.10;;;;;;6036906;23;20102;-90
2021/01/18 10:27:37;;;;;;;;;;;;;;;;;;;;;
2021/01/18 10:47:09;;;;;;;;;;;;;;;;;;;;;
2021/01/18 10:50:22;;;;;;;25.08;15.40;;;5.00;94.00;;;;;;6276284;22;20075;-90
2021/01/18 10:53:22;;;;;;;;;;;;;;;;;;;;;
2021/01/18 10:56:38;;;;;;;;;;;;;;;;;;;;;
2021/01/18 10:59:49;;;;;;;;;;;;;;;;;;;;;
2021/01/18 11:06:01;;;;;;;;;;;;;;;;;;;;;
2021/01/18 11:12:00;;;;;;;29.00;15.30;;;5.20;93.80;;;;;;6194980;23;20005;-89
2021/01/18 11:18:51;;;;;;;;;;;;;;;;;;;;;
2021/01/18 11:21:45;;;;;;;26.75;14.57;;;5.30;93.80;;;;;;6195842;23;20390;-92
2021/01/18 11:24:58;;;;;;;;;;;;;;;;;;;;;
2021/01/18 11:27:44;;;;;;;;;;;;;;;;;;;;;
2021/01/18 11:31:04;;;;;;;;;;;;;;;;;;;;;
2021/01/18 11:37:40;;;;;;;20.75;13.13;;;5.30;93.70;;;;;;6257762;22;20011;-89
2021/01/18 11:40:56;;;;;;;;;;;;;;;;;;;;;
2021/01/18 11:43:50;;;;;;;;;;;;;;;;;;;;;
2021/01/18 11:57:45;;;;;;;;;;;;;;;;;;;;;
2021/01/18 12:01:21;;;;;;;;;;;;;;;;;;;;;
2021/01/18 12:04:08;;;;;;;;;;;;;;;;;;;;;
2021/01/18 12:07:33;;;;;;;;;;;;;;;;;;;;;
2021/01/18 12:10:42;;;;;;;;;;;;;;;;;;;;;
2021/01/18 12:13:52;;;;;;;;;;;;;;;;;;;;;
2021/01/18 12:17:10;;;;;;;;;;;;;;;;;;;;;
2021/01/18 12:20:30;;;;;;;;;;;;;;;;;;;;;
2021/01/18 12:23:43;;;;;;;14.13;7.68;;;5.50;93.20;;;;;;6187337;23;20087;-92
2021/01/18 12:30:51;;;;;;;;;;;;;;;;;;;;;
2021/01/18 12:36:58;;;;;;;16.25;6.65;;;5.60;93.20;;;;;;6075454;23;20080;-91
2021/01/18 13:20:18;;;;;;;;;;;;;;;;;;;;;
2021/01/18 14:08:54;;;;;;;;;;;;;;;;;;;;;
2021/01/18 14:44:19;;;;;;;;;;;;;;;;;;;;;
2021/01/18 14:58:01;;;;;;;;;;;;;;;;;;;;;
2021/01/18 15:11:25;;;;;;;;;;;;;;;;;;;;;
2021/01/18 15:25:26;;;;;;;;;;;;;;;;;;;;;
2021/01/18 15:28:30;;;;;;;11.23;5.43;;;6.10;92.40;;;;;;5928245;24;20376;-89
2021/01/18 15:49:34;;;;;;;;;;;;;;;;;;;;;
2021/01/18 15:52:13;;;;;;;20.10;9.80;;;5.90;92.50;;;;;;6019849;23;20086;-91
2021/01/18 15:55:29;;;;;;;20.25;9.45;;;5.90;92.60;;;;;;6135114;23;20005;-94
2021/01/18 15:58:31;;;;;;;;;;;;;;;;;;;;;
2021/01/18 16:08:52;;;;;;;;;;;;;;;;;;;;;
2021/01/18 16:12:02;;;;;;;;;;;;;;;;;;;;;
2021/01/18 16:15:28;;;;;;;;;;;;;;;;;;;;;
2021/01/18 16:21:57;;;;;;;;;;;;;;;;;;;;;
2021/01/18 16:24:55;;;;;;;15.25;8.20;;;5.80;92.80;;;;;;6248757;23;20040;-91
2021/01/18 16:28:00;;;;;;;;;;;;;;;;;;;;;
2021/01/18 16:40:48;;;;;;;14.95;9.75;;;5.70;92.90;;;;;;6124271;23;20057;-89
2021/01/18 16:43:34;;;;;;;;;;;;;;;;;;;;;
2021/01/18 16:46:05;;;;;;;16.25;8.77;;;5.70;92.90;;;;;;6220395;23;20497;-89
2021/01/18 16:48:36;;;;;;;18.38;9.77;;;5.70;92.90;;;;;;6217538;23;20008;-87
2021/01/18 16:51:35;;;;;;;17.40;9.95;;;5.70;93.00;;;;;;6217764;23;20001;-87
2021/01/18 16:54:26;;;;;;;19.02;9.35;;;5.70;93.00;;;;;;6160229;23;20011;-88
2021/01/18 16:57:18;;;;;;;15.57;9.68;;;5.70;93.00;;;;;;6217415;23;20015;-87
2021/01/18 16:59:56;;;;;;;;;;;;;;;;;;;;;
2021/01/18 17:02:32;;;;;;;18.08;10.95;;;5.70;93.00;;;;;;6244349;23;20079;-87
2021/01/18 17:05:14;;;;;;;;;;;;;;;;;;;;;
2021/01/18 17:07:51;;;;;;;19.33;10.80;;;5.70;93.00;;;;;;6243570;23;20090;-88
2021/01/18 17:10:33;;;;;;;;;;;;;;;;;;;;;
2021/01/18 17:13:29;;;;;;;19.05;10.98;;;5.70;93.00;;;;;;6220398;23;20115;-87
2021/01/18 17:16:21;;;;;;;18.33;11.00;;;5.70;93.00;;;;;;6195761;23;20062;-89
2021/01/18 17:19:36;;;;;;;14.95;10.10;;;5.70;93.00;;;;;;6174141;23;20066;-88
2021/01/18 17:22:25;;;;;;;;;;;;;;;;;;;;;
2021/01/18 17:25:12;;;;;;;16.92;10.45;;;5.60;93.00;;;;;;6201058;23;20087;-89
2021/01/18 17:27:40;;;;;;;17.33;10.18;;;5.60;93.00;;;;;;6168670;23;20642;-89
2021/01/18 17:30:14;;;;;;;20.63;10.85;;;5.60;93.00;;;;;;6218122;23;20000;-90
2021/01/18 17:36:52;;;;;;;;;;;;;;;;;;;;;
2021/01/18 17:42:37;;;;;;;18.45;10.82;;;5.60;93.00;;;;;;6220316;23;20015;-88
2021/01/18 17:45:34;;;;;;;;;;;;;;;;;;;;;
2021/01/18 17:48:06;;;;;;;21.17;12.05;;;5.60;93.00;;;;;;6179358;23;20091;-89
2021/01/18 17:50:47;;;;;;;;;;;;;;;;;;;;;
2021/01/18 17:53:16;;;;;;;;;;;5.60;93.10;;;;;;6221861;23;20083;-88
2021/01/18 17:55:41;;;;;;;19.00;12.40;;;5.60;93.10;;;;;;6218349;23;19907;-89
2021/01/18 17:58:33;;;;;;;17.67;11.73;;;5.60;93.10;;;;;;6217400;23;20004;-91
2021/01/18 18:01:24;;;;;;;;;;;;;;;;;;;;;
2021/01/18 18:04:12;;;;;;;16.00;10.88;;;5.60;93.10;;;;;;6244982;23;20083;-86
2021/01/18 18:07:00;;;;;;;18.55;11.30;;;5.60;93.10;;;;;;6244854;23;20329;-91
2021/01/18 18:12:48;;;;;;;17.33;10.75;;;5.60;93.10;;;;;;6200514;23;20334;-90
2021/01/18 18:15:17;;;;;;;16.90;11.15;;;5.60;93.10;;;;;;6218437;23;20012;-89
2021/01/18 18:17:54;;;;;;;18.10;11.77;;;5.60;93.10;;;;;;6217601;23;20007;-89
2021/01/18 18:20:31;;;;;;;;;;;;;;;;;;;;;
2021/01/18 18:23:41;;;;;;;19.63;12.70;;;5.60;93.20;;;;;;6245958;23;20095;-88
2021/01/18 18:29:21;;;;;;;22.25;13.63;;;5.60;93.20;;;;;;6227096;23;20112;-88
2021/01/18 18:32:06;;;;;;;19.52;13.63;;;5.60;93.20;;;;;;6219379;23;20035;-88
2021/01/18 18:38:08;;;;;;;;;;;;;;;;;;;;;
2021/01/18 18:40:39;;;;;;;20.60;11.70;;;5.60;93.20;;;;;;6239884;23;20063;-90
2021/01/18 18:46:18;;;;;;;18.17;11.90;;;5.60;93.50;;;;;;6203707;23;20311;-88
2021/01/18 18:49:04;;;;;;;18.27;12.10;;;5.60;93.20;;;;;;6169377;23;20016;-89
2021/01/18 18:51:56;;;;;;;18.42;11.60;;;5.70;93.20;;;;;;6219647;23;20024;-90
2021/01/18 18:54:39;;;;;;;;;;;;;;;;;;;;;
2021/01/18 18:57:25;;;;;;;;;;;;;;;;;;;;;
2021/01/18 19:00:25;;;;;;;18.67;12.73;;;5.70;93.20;;;;;;6246807;23;20083;-90
2021/01/18 19:05:57;;;;;;;15.85;11.95;;;5.60;93.10;;;;;;6240502;23;20004;-88
2021/01/18 19:08:44;;;;;;;;;;;;;;;;;;;;;
2021/01/18 19:11:19;;;;;;;18.23;13.35;;;5.60;93.10;;;;;;6200735;23;20391;-88
2021/01/18 19:14:06;;;;;;;;;;;;;;;;;;;;;
2021/01/18 19:16:53;;;;;;;20.63;13.98;;;5.60;93.10;;;;;;6223489;23;20537;-90
2021/01/18 19:19:32;;;;;;;;;;;;;;;;;;;;;
2021/01/18 19:22:07;;;;;;;20.77;14.05;;;5.60;93.10;;;;;;6245310;23;20103;-90
2021/01/18 19:25:06;;;;;;;20.35;13.70;;;5.60;93.10;;;;;;6218745;23;20444;-88
2021/01/18 19:27:37;;;;;;;18.55;12.27;;;5.60;93.10;;;;;;6218500;23;20059;-91
2021/01/18 19:30:48;;;;;;;17.33;12.50;;;5.60;93.40;;;;;;6244278;23;20078;-90
2021/01/18 19:33:25;;;;;;;19.27;13.05;;;5.60;93.20;;;;;;6196264;23;20012;-89
2021/01/18 19:35:59;;;;;;;18.33;11.82;;;5.60;93.20;;;;;;6219399;23;20008;-90
2021/01/18 19:39:01;;;;;;;;;;;;;;;;;;;;;
2021/01/18 19:42:17;;;;;;;;;;;;;;;;;;;;;
2021/01/18 19:45:17;;;;;;;;;;;;;;;;;;;;;
2021/01/18 19:51:19;;;;;;;21.95;15.88;;;5.60;93.20;;;;;;6124876;23;20010;-90
2021/01/18 19:58:20;;;;;;;;;;;;;;;;;;;;;
2021/01/18 20:01:29;;;;;;;21.15;16.33;;;5.60;93.20;;;;;;6203922;23;20001;-91
2021/01/18 20:04:03;;;;;;;23.90;16.77;;;5.60;93.20;;;;;;6189116;23;20098;-90
2021/01/18 20:06:57;;;;;;;24.13;16.52;;;5.60;93.20;;;;;;6189577;23;20001;-90
2021/01/18 20:09:56;;;;;;;28.05;16.88;;;5.60;93.20;;;;;;6172217;23;20017;-90
2021/01/18 20:15:32;;;;;;;23.38;16.27;;;5.60;93.20;;;;;;6172694;23;20004;-90
2021/01/18 20:24:58;;;;;;;;;;;;;;;;;;;;;
2021/01/18 20:27:47;;;;;;;24.77;17.05;;;5.60;93.20;;;;;;6097284;23;20494;-89
2021/01/18 20:30:37;;;;;;;23.27;16.65;;;5.60;93.20;;;;;;6061842;23;20097;-90
2021/01/18 20:33:45;;;;;;;24.67;17.98;;;5.60;93.20;;;;;;6095072;23;20440;-91
2021/01/18 20:36:20;;;;;;;21.05;16.52;;;5.70;93.20;;;;;;6160303;23;20013;-91
2021/01/18 20:39:21;;;;;;;22.17;17.40;;;5.60;93.20;;;;;;6165524;23;20015;-91
2021/01/18 20:42:16;;;;;;;26.50;18.95;;;5.70;93.20;;;;;;6190554;23;20005;-90
2021/01/18 20:45:18;;;;;;;27.42;19.05;;;5.70;93.20;;;;;;6211924;23;20016;-91
2021/01/18 20:47:57;;;;;;;25.15;17.15;;;5.70;93.10;;;;;;6213424;23;20434;-92
2021/01/18 20:51:19;;;;;;;24.00;18.00;;;5.70;93.10;;;;;;6190464;23;20024;-91
2021/01/18 20:57:06;;;;;;;24.38;18.33;;;5.70;93.10;;;;;;6066835;23;20007;-90
2021/01/18 20:59:55;;;;;;;30.23;20.17;;;5.70;93.00;;;;;;6042798;23;20011;-88
2021/01/18 21:02:54;;;;;;;;;;;;;;;;;;;;;
2021/01/18 21:05:53;;;;;;;26.00;19.50;;;5.70;93.00;;;;;;6066009;23;20505;-90
2021/01/18 21:08:42;;;;;;;31.77;21.08;;;5.70;93.00;;;;;;5957723;24;20016;-90
2021/01/18 21:21:47;;;;;;;25.13;17.83;;;5.70;92.80;;;;;;5993663;23;20010;-88
2021/01/18 21:24:58;;;;;;;27.05;18.40;;;5.70;92.80;;;;;;6091025;23;20024;-88
2021/01/18 21:28:04;;;;;;;23.63;17.42;;;5.70;92.80;;;;;;6215992;23;20013;-88
2021/01/18 21:30:31;;;;;;;24.45;17.85;;;5.70;92.80;;;;;;6116169;23;20008;-89
2021/01/18 21:33:02;;;;;;;24.45;17.30;;;5.60;92.80;;;;;;6187819;23;20005;-87
2021/01/18 21:35:38;;;;;;;23.75;16.40;;;5.60;92.80;;;;;;6190335;23;20062;-87
2021/01/18 21:38:20;;;;;;;23.80;17.42;;;5.70;92.80;;;;;;6166100;23;20031;-88
2021/01/18 21:41:02;;;;;;;;;;;;;;;;;;;;;
2021/01/18 21:43:58;;;;;;;24.58;16.92;;;5.60;92.80;;;;;;6190575;23;20079;-90
2021/01/18 21:53:30;;;;;;;;;;;;;;;;;;;;;
2021/01/18 21:56:04;;;;;;;22.80;16.73;;;5.60;92.80;;;;;;6172568;23;20087;-89
2021/01/18 21:58:45;;;;;;;23.70;16.38;;;5.60;92.70;;;;;;6189698;23;20012;-89
2021/01/18 22:02:20;;;;;;;;;;;;;;;;;;;;;
2021/01/18 22:05:41;;;;;;;20.65;14.65;;;5.60;92.80;;;;;;6180345;23;20005;-89
2021/01/18 22:08:44;;;;;;;21.77;15.38;;;5.60;92.70;;;;;;6157752;23;20015;-89
2021/01/18 22:14:41;;;;;;;19.45;14.75;;;5.60;92.80;;;;;;6123595;23;20420;-89
2021/01/18 22:17:38;;;;;;;23.00;15.15;;;5.60;92.80;;;;;;6124245;23;20050;-88
2021/01/18 22:20:18;;;;;;;19.50;14.82;;;5.60;92.80;;;;;;6179807;23;20062;-89
2021/01/18 22:23:36;;;;;;;22.20;16.15;;;5.70;92.90;;;;;;6165449;23;20422;-91
2021/01/18 22:27:02;;;;;;;21.63;14.57;;;5.60;92.80;;;;;;6159924;23;20013;-89
2021/01/18 22:29:48;;;;;;;19.92;14.70;;;5.60;92.80;;;;;;6157928;23;20356;-89
2021/01/18 22:32:47;;;;;;;;;;;;;;;;;;;;;
2021/01/18 22:35:26;;;;;;;;;;;;;;;;;;;;;
2021/01/18 22:38:05;;;;;;;20.13;14.60;;;5.60;92.80;;;;;;6186126;23;20683;-91
2021/01/18 22:40:51;;;;;;;20.30;14.93;;;5.60;92.80;;;;;;6135053;23;20312;-90
2021/01/18 22:44:01;;;;;;;19.23;14.07;;;5.60;92.80;;;;;;6159299;23;20076;-89
2021/01/18 22:47:01;;;;;;;18.85;13.80;;;5.60;92.80;;;;;;6167568;23;20052;-88
2021/01/18 22:50:01;;;;;;;;;;;;;;;;;;;;;
2021/01/18 22:52:48;;;;;;;18.90;14.98;;;5.60;92.80;;;;;;6178812;23;20080;-88
2021/01/18 22:55:19;;;;;;;16.88;13.98;;;5.60;92.80;;;;;;6135916;23;20324;-87
2021/01/18 22:57:52;;;;;;;19.50;14.57;;;5.60;92.80;;;;;;6160558;23;20028;-89
2021/01/18 23:00:25;;;;;;;16.67;13.50;;;5.60;92.80;;;;;;6159832;23;20029;-88
2021/01/18 23:03:12;;;;;;;19.08;14.00;;;5.60;92.80;;;;;;6160037;23;20059;-88
2021/01/18 23:05:41;;;;;;;16.10;12.63;;;5.60;92.90;;;;;;6141190;23;20001;-88
2021/01/18 23:08:33;;;;;;;16.42;13.38;;;5.60;92.90;;;;;;6159333;23;20340;-89
2021/01/18 23:11:35;;;;;;;;;;;;;;;;;;;;;
2021/01/18 23:14:49;;;;;;;;;;;;;;;;;;;;;
2021/01/18 23:17:39;;;;;;;18.23;13.00;;;5.60;92.90;;;;;;6160259;23;20096;-87
2021/01/18 23:20:29;;;;;;;18.60;12.35;;;5.60;92.90;;;;;;6159642;23;20048;-87
2021/01/18 23:23:58;;;;;;;18.55;11.68;;;5.60;92.90;;;;;;6160737;23;20001;-88
2021/01/18 23:26:29;;;;;;;15.30;11.30;;;5.70;92.90;;;;;;6212532;23;20013;-88
2021/01/18 23:29:17;;;;;;;12.95;10.55;;;5.70;92.90;;;;;;6216644;23;20004;-87
2021/01/18 23:32:19;;;;;;;;;;;;;;;;;;;;;
2021/01/18 23:35:12;;;;;;;16.38;10.80;;;5.70;92.90;;;;;;6192491;23;20079;-88
2021/01/18 23:38:14;;;;;;;;;;;;;;;;;;;;;
2021/01/18 23:41:22;;;;;;;17.48;12.48;;;5.70;92.90;;;;;;6216352;23;20071;-87
2021/01/18 23:44:16;;;;;;;17.25;11.50;;;5.70;92.90;;;;;;6168117;23;20430;-88
2021/01/18 23:46:42;;;;;;;17.42;11.45;;;5.70;92.90;;;;;;6189594;23;20373;-87
2021/01/18 23:49:20;;;;;;;15.40;11.38;;;5.70;92.90;;;;;;6215727;23;20009;-90
2021/01/18 23:51:55;;;;;;;14.98;10.85;;;5.70;92.90;;;;;;6189879;23;20083;-87
2021/01/18 23:54:44;;;;;;;15.82;10.55;;;5.70;92.90;;;;;;6189374;23;20028;-88
2021/01/18 23:57:33;;;;;;;14.68;10.38;;;5.70;92.90;;;;;;6188635;23;20068;-88
